Time;durP1;ratioP1;P1;durP2;ratioP2;P2;SDS_P1;SDS_P2;PMS_P1;PMS_P2;Temp;Humidity;BMP_temperature;BMP_pressure;BME280_temperature;BME280_humidity;BME280_pressure;Samples;Min_cycle;Max_cycle;Signal;HPM_P1;HPM_P2
2023/07/16 00:00:13;;;;;;;46.97;14.38;;;;;;;;;;4962125;28;20490;-84
2023/07/16 00:02:38;;;;;;;45.17;14.35;;;;;;;;;;4965436;28;20086;-85
2023/07/16 00:05:05;;;;;;;55.00;13.48;;;;;;;;;;4972505;28;20047;-84
2023/07/16 00:07:31;;;;;;;45.78;11.65;;;;;;;;;;4971768;28;20051;-86
2023/07/16 00:09:56;;;;;;;45.53;10.95;;;;;;;;;;4955309;28;20047;-84
2023/07/16 00:12:22;;;;;;;45.85;11.05;;;;;;;;;;4972634;28;20050;-86
2023/07/16 00:14:48;;;;;;;34.53;10.10;;;;;;;;;;4972455;28;20054;-85
2023/07/16 00:17:13;;;;;;;43.50;11.27;;;;;;;;;;4971396;28;20460;-85
2023/07/16 00:19:38;;;;;;;44.42;10.73;;;;;;;;;;4972086;28;20133;-85
2023/07/16 00:22:04;;;;;;;36.70;9.60;;;;;;;;;;4969662;28;20046;-86
2023/07/16 00:24:32;;;;;;;40.08;10.50;;;;;;;;;;4972297;28;20057;-83
2023/07/16 00:26:58;;;;;;;43.95;10.45;;;;;;;;;;4954532;28;20047;-85
2023/07/16 00:29:26;;;;;;;56.17;11.77;;;;;;;;;;4961550;28;20456;-84
2023/07/16 00:31:51;;;;;;;51.08;11.68;;;;;;;;;;4962831;28;20043;-84
2023/07/16 00:34:16;;;;;;;53.15;12.55;;;;;;;;;;4959919;28;20043;-83
2023/07/16 00:36:42;;;;;;;58.67;13.07;;;;;;;;;;4959019;28;20058;-85
2023/07/16 00:39:09;;;;;;;50.88;13.57;;;;;;;;;;4933856;29;20046;-85
2023/07/16 00:41:35;;;;;;;50.25;13.25;;;;;;;;;;4952654;28;20043;-86
2023/07/16 00:44:00;;;;;;;61.72;15.23;;;;;;;;;;4952664;29;20053;-86
2023/07/16 00:46:25;;;;;;;59.85;15.25;;;;;;;;;;4951186;29;20062;-84
2023/07/16 00:48:54;;;;;;;68.85;16.50;;;;;;;;;;4952420;29;20043;-84
2023/07/16 00:51:22;;;;;;;49.58;15.30;;;;;;;;;;4951297;29;20489;-86
2023/07/16 00:53:48;;;;;;;52.67;15.18;;;;;;;;;;4952156;29;20129;-85
2023/07/16 00:56:16;;;;;;;60.83;15.60;;;;;;;;;;4951175;29;20133;-85
2023/07/16 00:58:41;;;;;;;53.75;13.90;;;;;;;;;;4935564;29;20126;-84
2023/07/16 01:01:07;;;;;;;47.67;14.55;;;;;;;;;;4951102;29;20078;-85
2023/07/16 01:03:32;;;;;;;57.33;13.75;;;;;;;;;;4951088;29;20525;-87
2023/07/16 01:06:08;;;;;;;56.67;14.10;;;;;;;;;;4950984;29;20035;-84
2023/07/16 01:08:59;;;;;;;65.35;14.57;;;;;;;;;;4925250;29;20039;-85
2023/07/16 01:11:26;;;;;;;47.50;12.82;;;;;;;;;;4958827;28;20126;-85
2023/07/16 01:13:52;;;;;;;55.22;14.77;;;;;;;;;;4959635;28;20039;-84
2023/07/16 01:16:22;;;;;;;63.53;14.02;;;;;;;;;;4961402;28;20050;-85
2023/07/16 01:18:48;;;;;;;54.17;14.10;;;;;;;;;;4965076;28;20054;-85
2023/07/16 01:21:15;;;;;;;51.03;12.65;;;;;;;;;;4963176;28;20094;-84
2023/07/16 01:23:52;;;;;;;45.10;10.88;;;;;;;;;;4964553;28;20039;-84
2023/07/16 01:26:55;;;;;;;33.75;7.07;;;;;;;;;;4967836;28;20534;-84
2023/07/16 01:29:29;;;;;;;16.33;4.53;;;;;;;;;;4969878;28;20050;-85
2023/07/16 01:32:09;;;;;;;17.58;3.88;;;;;;;;;;4965481;28;20050;-84
2023/07/16 01:34:37;;;;;;;14.18;3.63;;;;;;;;;;4973655;28;20042;-84
2023/07/16 01:37:06;;;;;;;15.07;3.60;;;;;;;;;;4972370;28;20126;-82
2023/07/16 01:39:35;;;;;;;10.80;3.10;;;;;;;;;;4971354;28;20045;-83
2023/07/16 01:42:01;;;;;;;15.50;2.90;;;;;;;;;;4974692;28;20054;-85
2023/07/16 01:44:27;;;;;;;14.90;3.00;;;;;;;;;;4974038;28;20045;-83
2023/07/16 01:47:06;;;;;;;15.13;2.80;;;;;;;;;;4956715;28;20121;-84
2023/07/16 01:49:36;;;;;;;18.10;3.60;;;;;;;;;;4973153;28;20051;-83
2023/07/16 01:52:03;;;;;;;18.23;2.90;;;;;;;;;;4962151;28;20146;-84
2023/07/16 01:54:29;;;;;;;24.17;3.35;;;;;;;;;;4973183;28;20411;-84
2023/07/16 01:56:55;;;;;;;18.27;3.40;;;;;;;;;;4946556;28;20054;-84
2023/07/16 01:59:21;;;;;;;14.77;3.40;;;;;;;;;;4972022;28;20118;-83
2023/07/16 02:01:48;;;;;;;18.00;3.25;;;;;;;;;;4973222;28;20114;-85
2023/07/16 02:04:16;;;;;;;27.60;4.30;;;;;;;;;;4969732;28;20507;-83
2023/07/16 02:06:42;;;;;;;25.70;3.72;;;;;;;;;;4974052;28;20066;-84
2023/07/16 02:09:09;;;;;;;20.92;3.38;;;;;;;;;;4973566;28;20039;-81
2023/07/16 02:11:35;;;;;;;21.75;3.30;;;;;;;;;;4958145;28;20058;-84
2023/07/16 02:14:03;;;;;;;19.35;2.95;;;;;;;;;;4965447;28;20045;-84
2023/07/16 02:16:29;;;;;;;17.60;3.35;;;;;;;;;;4972917;28;20047;-83
2023/07/16 02:18:54;;;;;;;18.73;3.47;;;;;;;;;;4974748;28;20038;-83
2023/07/16 02:21:19;;;;;;;22.63;3.72;;;;;;;;;;4974223;28;20051;-84
2023/07/16 02:23:45;;;;;;;18.30;3.38;;;;;;;;;;4974581;28;20049;-83
2023/07/16 02:26:10;;;;;;;25.88;4.15;;;;;;;;;;4974479;28;20515;-84
2023/07/16 02:28:36;;;;;;;15.52;3.65;;;;;;;;;;4973659;28;20058;-85
2023/07/16 02:31:03;;;;;;;21.15;3.15;;;;;;;;;;4973482;28;20047;-85
2023/07/16 02:33:28;;;;;;;17.05;3.42;;;;;;;;;;4956726;28;20054;-85
2023/07/16 02:35:54;;;;;;;28.95;4.05;;;;;;;;;;4974056;28;20039;-84
2023/07/16 02:38:19;;;;;;;28.55;3.80;;;;;;;;;;4973774;28;20051;-85
2023/07/16 02:40:46;;;;;;;23.73;3.75;;;;;;;;;;4974119;28;20337;-86
2023/07/16 02:43:11;;;;;;;28.52;4.30;;;;;;;;;;4956024;28;20133;-85
2023/07/16 02:45:37;;;;;;;24.23;4.43;;;;;;;;;;4973919;28;20559;-85
2023/07/16 02:48:02;;;;;;;26.52;4.43;;;;;;;;;;4974199;28;20045;-85
2023/07/16 02:50:28;;;;;;;28.98;4.18;;;;;;;;;;4955752;28;20038;-85
2023/07/16 02:52:53;;;;;;;32.65;4.70;;;;;;;;;;4973255;28;20070;-85
2023/07/16 02:55:19;;;;;;;29.02;4.63;;;;;;;;;;4972874;28;20546;-85
2023/07/16 02:57:44;;;;;;;31.02;4.57;;;;;;;;;;4955769;28;20039;-84
2023/07/16 03:00:10;;;;;;;26.65;4.15;;;;;;;;;;4973124;28;20527;-83
2023/07/16 03:02:35;;;;;;;27.05;4.38;;;;;;;;;;4972986;28;20365;-85
2023/07/16 03:05:01;;;;;;;27.33;4.13;;;;;;;;;;4974120;28;20043;-84
2023/07/16 03:07:27;;;;;;;34.95;5.07;;;;;;;;;;4972983;28;20122;-84
2023/07/16 03:09:52;;;;;;;36.92;6.05;;;;;;;;;;4973603;28;20507;-84
2023/07/16 03:12:18;;;;;;;36.22;5.20;;;;;;;;;;4972500;28;20130;-83
2023/07/16 03:14:43;;;;;;;34.25;5.32;;;;;;;;;;4973206;28;20043;-84
2023/07/16 03:17:09;;;;;;;30.83;5.75;;;;;;;;;;4972565;28;20047;-84
2023/07/16 03:19:34;;;;;;;35.65;5.55;;;;;;;;;;4973887;28;20094;-84
2023/07/16 03:22:00;;;;;;;30.38;4.97;;;;;;;;;;4973088;28;20110;-86
2023/07/16 03:24:25;;;;;;;32.83;5.50;;;;;;;;;;4955264;28;20042;-85
2023/07/16 03:26:50;;;;;;;28.00;5.40;;;;;;;;;;4973563;28;20459;-85
2023/07/16 03:29:16;;;;;;;28.30;4.63;;;;;;;;;;4972697;28;20061;-86
2023/07/16 03:31:41;;;;;;;28.85;4.78;;;;;;;;;;4955430;28;20031;-86
2023/07/16 03:34:06;;;;;;;23.90;4.70;;;;;;;;;;4972645;28;20050;-85
2023/07/16 03:36:32;;;;;;;23.58;5.00;;;;;;;;;;4955934;28;20043;-85
2023/07/16 03:38:57;;;;;;;30.88;5.30;;;;;;;;;;4972951;28;20380;-85
2023/07/16 03:41:23;;;;;;;25.10;4.60;;;;;;;;;;4971561;28;20088;-84
2023/07/16 03:43:48;;;;;;;22.50;4.47;;;;;;;;;;4973673;28;20122;-84
2023/07/16 03:46:13;;;;;;;20.67;3.60;;;;;;;;;;4972610;28;20069;-84
2023/07/16 03:48:39;;;;;;;25.63;4.28;;;;;;;;;;4972491;28;20054;-85
2023/07/16 03:51:04;;;;;;;23.05;4.20;;;;;;;;;;4954304;28;20037;-84
2023/07/16 03:53:30;;;;;;;21.10;4.03;;;;;;;;;;4972267;28;20405;-85
2023/07/16 03:55:55;;;;;;;19.38;4.30;;;;;;;;;;4972069;28;20070;-84
2023/07/16 03:58:20;;;;;;;19.48;3.50;;;;;;;;;;4971640;28;20051;-84
2023/07/16 04:00:46;;;;;;;16.83;3.30;;;;;;;;;;4971940;28;20039;-83
